sensor_id;sensor_type;location;lat;lon;timestamp;P1;durP1;ratioP1;P2;durP2;ratioP2
43048;SDS011;28673;44.412;11.918;2023-03-02T00:01:25;43.40;;;21.67;;
43048;SDS011;28673;44.412;11.918;2023-03-02T00:06:23;39.55;;;20.60;;
43048;SDS011;28673;44.412;11.918;2023-03-02T00:08:50;41.20;;;21.45;;
43048;SDS011;28673;44.412;11.918;2023-03-02T00:11:16;39.47;;;20.38;;
43048;SDS011;28673;44.412;11.918;2023-03-02T00:13:42;34.83;;;20.33;;
43048;SDS011;28673;44.412;11.918;2023-03-02T00:16:08;37.42;;;21.20;;
43048;SDS011;28673;44.412;11.918;2023-03-02T00:18:34;32.28;;;19.83;;
43048;SDS011;28673;44.412;11.918;2023-03-02T00:21:00;43.38;;;22.25;;
43048;SDS011;28673;44.412;11.918;2023-03-02T00:23:26;37.75;;;22.00;;
43048;SDS011;28673;44.412;11.918;2023-03-02T00:25:52;37.05;;;21.33;;
43048;SDS011;28673;44.412;11.918;2023-03-02T00:28:18;34.92;;;21.08;;
43048;SDS011;28673;44.412;11.918;2023-03-02T00:30:44;38.55;;;21.45;;
43048;SDS011;28673;44.412;11.918;2023-03-02T00:33:10;37.45;;;20.55;;
43048;SDS011;28673;44.412;11.918;2023-03-02T00:35:36;38.25;;;21.17;;
43048;SDS011;28673;44.412;11.918;2023-03-02T00:38:05;46.28;;;23.98;;
43048;SDS011;28673;44.412;11.918;2023-03-02T00:40:33;38.47;;;21.85;;
43048;SDS011;28673;44.412;11.918;2023-03-02T00:42:59;43.05;;;23.20;;
43048;SDS011;28673;44.412;11.918;2023-03-02T00:45:25;39.30;;;22.00;;
43048;SDS011;28673;44.412;11.918;2023-03-02T00:47:51;37.53;;;22.23;;
43048;SDS011;28673;44.412;11.918;2023-03-02T00:50:17;41.83;;;22.77;;
43048;SDS011;28673;44.412;11.918;2023-03-02T00:52:43;43.03;;;22.02;;
43048;SDS011;28673;44.412;11.918;2023-03-02T00:55:09;37.63;;;20.67;;
43048;SDS011;28673;44.412;11.918;2023-03-02T00:57:35;36.90;;;21.13;;
43048;SDS011;28673;44.412;11.918;2023-03-02T01:00:02;45.60;;;23.60;;
43048;SDS011;28673;44.412;11.918;2023-03-02T01:02:36;43.42;;;22.85;;
43048;SDS011;28673;44.412;11.918;2023-03-02T01:05:08;45.05;;;22.20;;
43048;SDS011;28673;44.412;11.918;2023-03-02T01:07:34;44.88;;;23.27;;
43048;SDS011;28673;44.412;11.918;2023-03-02T01:10:00;40.13;;;22.02;;
43048;SDS011;28673;44.412;11.918;2023-03-02T01:12:26;42.63;;;20.77;;
43048;SDS011;28673;44.412;11.918;2023-03-02T01:14:52;35.35;;;20.23;;
43048;SDS011;28673;44.412;11.918;2023-03-02T01:17:18;37.80;;;21.50;;
43048;SDS011;28673;44.412;11.918;2023-03-02T01:19:46;37.33;;;20.73;;
43048;SDS011;28673;44.412;11.918;2023-03-02T01:22:12;40.63;;;21.25;;
43048;SDS011;28673;44.412;11.918;2023-03-02T01:24:38;44.55;;;20.00;;
43048;SDS011;28673;44.412;11.918;2023-03-02T01:27:04;38.38;;;19.00;;
43048;SDS011;28673;44.412;11.918;2023-03-02T01:29:30;35.13;;;19.35;;
43048;SDS011;28673;44.412;11.918;2023-03-02T01:31:58;29.60;;;18.48;;
43048;SDS011;28673;44.412;11.918;2023-03-02T01:34:24;37.50;;;19.10;;
43048;SDS011;28673;44.412;11.918;2023-03-02T01:36:50;34.13;;;18.38;;
43048;SDS011;28673;44.412;11.918;2023-03-02T01:39:16;30.50;;;19.23;;
43048;SDS011;28673;44.412;11.918;2023-03-02T01:41:42;41.47;;;19.58;;
43048;SDS011;28673;44.412;11.918;2023-03-02T01:49:57;32.63;;;18.85;;
43048;SDS011;28673;44.412;11.918;2023-03-02T01:52:29;35.03;;;19.27;;
43048;SDS011;28673;44.412;11.918;2023-03-02T01:54:58;30.23;;;17.67;;
43048;SDS011;28673;44.412;11.918;2023-03-02T01:57:29;31.15;;;17.75;;
43048;SDS011;28673;44.412;11.918;2023-03-02T02:00:00;34.47;;;19.57;;
43048;SDS011;28673;44.412;11.918;2023-03-02T02:02:37;29.20;;;18.70;;
43048;SDS011;28673;44.412;11.918;2023-03-02T02:05:09;28.80;;;16.45;;
43048;SDS011;28673;44.412;11.918;2023-03-02T02:07:40;31.25;;;19.25;;
43048;SDS011;28673;44.412;11.918;2023-03-02T02:10:07;33.72;;;17.65;;
43048;SDS011;28673;44.412;11.918;2023-03-02T02:12:34;34.78;;;17.45;;
43048;SDS011;28673;44.412;11.918;2023-03-02T02:15:00;29.17;;;18.20;;
43048;SDS011;28673;44.412;11.918;2023-03-02T02:17:29;31.90;;;16.90;;
43048;SDS011;28673;44.412;11.918;2023-03-02T02:28:20;31.23;;;19.25;;
43048;SDS011;28673;44.412;11.918;2023-03-02T02:34:21;41.55;;;20.80;;
43048;SDS011;28673;44.412;11.918;2023-03-02T02:36:50;29.25;;;17.92;;
43048;SDS011;28673;44.412;11.918;2023-03-02T02:39:22;35.95;;;20.77;;
43048;SDS011;28673;44.412;11.918;2023-03-02T02:41:54;34.78;;;20.25;;
43048;SDS011;28673;44.412;11.918;2023-03-02T02:44:23;39.67;;;20.23;;
43048;SDS011;28673;44.412;11.918;2023-03-02T02:46:49;36.72;;;18.98;;
43048;SDS011;28673;44.412;11.918;2023-03-02T02:49:32;33.50;;;21.48;;
43048;SDS011;28673;44.412;11.918;2023-03-02T02:52:02;40.25;;;20.83;;
43048;SDS011;28673;44.412;11.918;2023-03-02T02:54:30;32.55;;;19.95;;
43048;SDS011;28673;44.412;11.918;2023-03-02T02:56:58;39.92;;;20.83;;
43048;SDS011;28673;44.412;11.918;2023-03-02T02:59:28;38.15;;;21.92;;
43048;SDS011;28673;44.412;11.918;2023-03-02T03:01:58;36.30;;;21.80;;
43048;SDS011;28673;44.412;11.918;2023-03-02T03:04:27;34.13;;;20.80;;
43048;SDS011;28673;44.412;11.918;2023-03-02T03:06:56;39.65;;;21.40;;
43048;SDS011;28673;44.412;11.918;2023-03-02T03:09:26;34.17;;;20.90;;
43048;SDS011;28673;44.412;11.918;2023-03-02T03:11:57;36.75;;;21.15;;
43048;SDS011;28673;44.412;11.918;2023-03-02T03:14:35;34.60;;;21.23;;
43048;SDS011;28673;44.412;11.918;2023-03-02T03:17:04;34.38;;;20.75;;
43048;SDS011;28673;44.412;11.918;2023-03-02T03:19:43;37.35;;;21.05;;
43048;SDS011;28673;44.412;11.918;2023-03-02T03:22:11;31.63;;;20.73;;
43048;SDS011;28673;44.412;11.918;2023-03-02T03:24:39;36.58;;;21.55;;
43048;SDS011;28673;44.412;11.918;2023-03-02T03:27:08;36.90;;;21.50;;
43048;SDS011;28673;44.412;11.918;2023-03-02T03:29:40;36.83;;;21.45;;
43048;SDS011;28673;44.412;11.918;2023-03-02T03:32:11;36.70;;;21.15;;
43048;SDS011;28673;44.412;11.918;2023-03-02T03:34:38;35.45;;;21.85;;
43048;SDS011;28673;44.412;11.918;2023-03-02T03:37:28;36.08;;;21.25;;
43048;SDS011;28673;44.412;11.918;2023-03-02T03:39:54;40.33;;;22.48;;
43048;SDS011;28673;44.412;11.918;2023-03-02T03:42:21;41.03;;;21.40;;
43048;SDS011;28673;44.412;11.918;2023-03-02T03:44:48;36.58;;;20.77;;
43048;SDS011;28673;44.412;11.918;2023-03-02T03:47:14;36.50;;;20.88;;
43048;SDS011;28673;44.412;11.918;2023-03-02T03:49:41;39.40;;;20.10;;
43048;SDS011;28673;44.412;11.918;2023-03-02T03:52:07;38.47;;;20.70;;
43048;SDS011;28673;44.412;11.918;2023-03-02T03:54:33;39.47;;;22.75;;
43048;SDS011;28673;44.412;11.918;2023-03-02T03:56:59;40.10;;;21.27;;
43048;SDS011;28673;44.412;11.918;2023-03-02T03:59:25;36.78;;;21.52;;
43048;SDS011;28673;44.412;11.918;2023-03-02T04:01:57;40.63;;;21.35;;
43048;SDS011;28673;44.412;11.918;2023-03-02T04:04:28;39.72;;;21.42;;
43048;SDS011;28673;44.412;11.918;2023-03-02T04:06:57;36.53;;;22.03;;
43048;SDS011;28673;44.412;11.918;2023-03-02T04:09:24;40.45;;;21.50;;
43048;SDS011;28673;44.412;11.918;2023-03-02T04:11:52;38.58;;;19.88;;
43048;SDS011;28673;44.412;11.918;2023-03-02T04:14:20;34.75;;;20.33;;
43048;SDS011;28673;44.412;11.918;2023-03-02T04:16:48;36.83;;;19.83;;
43048;SDS011;28673;44.412;11.918;2023-03-02T04:19:15;43.60;;;20.95;;
43048;SDS011;28673;44.412;11.918;2023-03-02T04:21:45;35.63;;;21.98;;
43048;SDS011;28673;44.412;11.918;2023-03-02T04:24:15;35.60;;;20.80;;
43048;SDS011;28673;44.412;11.918;2023-03-02T04:26:43;35.15;;;20.60;;
43048;SDS011;28673;44.412;11.918;2023-03-02T04:29:10;33.88;;;20.30;;
43048;SDS011;28673;44.412;11.918;2023-03-02T04:31:37;32.40;;;20.45;;
43048;SDS011;28673;44.412;11.918;2023-03-02T04:34:03;38.13;;;20.42;;
43048;SDS011;28673;44.412;11.918;2023-03-02T04:36:32;36.95;;;19.17;;
43048;SDS011;28673;44.412;11.918;2023-03-02T04:39:02;35.55;;;22.25;;
43048;SDS011;28673;44.412;11.918;2023-03-02T04:41:29;38.65;;;20.33;;
43048;SDS011;28673;44.412;11.918;2023-03-02T04:43:55;38.92;;;21.15;;
43048;SDS011;28673;44.412;11.918;2023-03-02T04:46:22;40.88;;;20.35;;
43048;SDS011;28673;44.412;11.918;2023-03-02T04:48:50;35.25;;;19.77;;
43048;SDS011;28673;44.412;11.918;2023-03-02T04:51:17;33.20;;;19.75;;
43048;SDS011;28673;44.412;11.918;2023-03-02T04:53:51;40.55;;;21.45;;
43048;SDS011;28673;44.412;11.918;2023-03-02T04:56:22;37.85;;;20.10;;
43048;SDS011;28673;44.412;11.918;2023-03-02T04:58:48;36.72;;;19.33;;
43048;SDS011;28673;44.412;11.918;2023-03-02T05:01:15;34.05;;;19.98;;
43048;SDS011;28673;44.412;11.918;2023-03-02T05:03:43;36.80;;;19.92;;
43048;SDS011;28673;44.412;11.918;2023-03-02T05:06:09;38.85;;;19.95;;
43048;SDS011;28673;44.412;11.918;2023-03-02T05:08:35;35.45;;;19.25;;
43048;SDS011;28673;44.412;11.918;2023-03-02T05:11:01;39.35;;;23.10;;
43048;SDS011;28673;44.412;11.918;2023-03-02T05:13:28;37.38;;;19.85;;
43048;SDS011;28673;44.412;11.918;2023-03-02T05:15:54;35.95;;;20.48;;
43048;SDS011;28673;44.412;11.918;2023-03-02T05:18:21;35.58;;;20.48;;
43048;SDS011;28673;44.412;11.918;2023-03-02T05:20:48;38.60;;;19.98;;
43048;SDS011;28673;44.412;11.918;2023-03-02T05:23:15;37.53;;;19.30;;
43048;SDS011;28673;44.412;11.918;2023-03-02T05:25:48;35.28;;;20.08;;
43048;SDS011;28673;44.412;11.918;2023-03-02T05:28:16;31.75;;;19.23;;
43048;SDS011;28673;44.412;11.918;2023-03-02T05:30:42;33.55;;;19.52;;
43048;SDS011;28673;44.412;11.918;2023-03-02T05:33:08;38.22;;;19.17;;
43048;SDS011;28673;44.412;11.918;2023-03-02T05:35:34;37.92;;;22.00;;
43048;SDS011;28673;44.412;11.918;2023-03-02T05:38:00;39.80;;;20.33;;
43048;SDS011;28673;44.412;11.918;2023-03-02T05:40:26;37.22;;;21.38;;
43048;SDS011;28673;44.412;11.918;2023-03-02T05:42:52;37.92;;;20.73;;
43048;SDS011;28673;44.412;11.918;2023-03-02T05:45:20;34.70;;;19.58;;
43048;SDS011;28673;44.412;11.918;2023-03-02T05:47:48;33.30;;;19.25;;
43048;SDS011;28673;44.412;11.918;2023-03-02T05:50:14;36.25;;;19.58;;
43048;SDS011;28673;44.412;11.918;2023-03-02T05:52:40;37.30;;;21.05;;
43048;SDS011;28673;44.412;11.918;2023-03-02T05:55:06;32.72;;;19.15;;
43048;SDS011;28673;44.412;11.918;2023-03-02T05:57:32;35.15;;;20.20;;
43048;SDS011;28673;44.412;11.918;2023-03-02T05:59:58;36.33;;;20.08;;
43048;SDS011;28673;44.412;11.918;2023-03-02T06:02:24;37.10;;;21.30;;
43048;SDS011;28673;44.412;11.918;2023-03-02T06:04:50;32.83;;;18.83;;
43048;SDS011;28673;44.412;11.918;2023-03-02T06:07:16;32.33;;;20.50;;
43048;SDS011;28673;44.412;11.918;2023-03-02T06:09:42;35.50;;;20.70;;
43048;SDS011;28673;44.412;11.918;2023-03-02T06:12:08;36.22;;;19.73;;
43048;SDS011;28673;44.412;11.918;2023-03-02T06:14:34;38.40;;;21.17;;
43048;SDS011;28673;44.412;11.918;2023-03-02T06:17:00;35.42;;;21.52;;
43048;SDS011;28673;44.412;11.918;2023-03-02T06:19:26;43.80;;;22.60;;
43048;SDS011;28673;44.412;11.918;2023-03-02T06:21:52;41.30;;;21.85;;
43048;SDS011;28673;44.412;11.918;2023-03-02T06:24:18;37.78;;;22.13;;
43048;SDS011;28673;44.412;11.918;2023-03-02T06:26:44;41.30;;;22.80;;
43048;SDS011;28673;44.412;11.918;2023-03-02T06:29:09;37.53;;;21.50;;
43048;SDS011;28673;44.412;11.918;2023-03-02T06:31:35;39.83;;;23.30;;
43048;SDS011;28673;44.412;11.918;2023-03-02T06:34:02;46.60;;;23.83;;
43048;SDS011;28673;44.412;11.918;2023-03-02T06:36:28;37.35;;;22.70;;
43048;SDS011;28673;44.412;11.918;2023-03-02T06:38:54;47.75;;;23.02;;
43048;SDS011;28673;44.412;11.918;2023-03-02T06:41:19;38.25;;;23.48;;
43048;SDS011;28673;44.412;11.918;2023-03-02T06:43:45;38.50;;;23.17;;
43048;SDS011;28673;44.412;11.918;2023-03-02T06:46:11;40.60;;;24.73;;
43048;SDS011;28673;44.412;11.918;2023-03-02T06:48:37;43.55;;;23.75;;
43048;SDS011;28673;44.412;11.918;2023-03-02T06:51:03;36.58;;;21.77;;
43048;SDS011;28673;44.412;11.918;2023-03-02T06:53:30;42.75;;;25.55;;
43048;SDS011;28673;44.412;11.918;2023-03-02T06:55:56;45.00;;;24.70;;
43048;SDS011;28673;44.412;11.918;2023-03-02T06:58:22;45.70;;;25.38;;
43048;SDS011;28673;44.412;11.918;2023-03-02T07:00:47;44.45;;;24.52;;
43048;SDS011;28673;44.412;11.918;2023-03-02T07:03:13;42.33;;;24.98;;
43048;SDS011;28673;44.412;11.918;2023-03-02T07:05:39;42.92;;;23.88;;
43048;SDS011;28673;44.412;11.918;2023-03-02T07:08:05;44.00;;;24.42;;
43048;SDS011;28673;44.412;11.918;2023-03-02T07:10:31;41.75;;;24.98;;
43048;SDS011;28673;44.412;11.918;2023-03-02T07:12:57;42.97;;;23.58;;
43048;SDS011;28673;44.412;11.918;2023-03-02T07:15:23;45.08;;;25.38;;
43048;SDS011;28673;44.412;11.918;2023-03-02T07:17:49;44.75;;;25.75;;
43048;SDS011;28673;44.412;11.918;2023-03-02T07:20:16;49.25;;;25.13;;
43048;SDS011;28673;44.412;11.918;2023-03-02T07:22:43;41.88;;;24.27;;
43048;SDS011;28673;44.412;11.918;2023-03-02T07:25:09;38.83;;;23.52;;
43048;SDS011;28673;44.412;11.918;2023-03-02T07:27:36;49.20;;;25.45;;
43048;SDS011;28673;44.412;11.918;2023-03-02T07:30:03;47.60;;;25.40;;
43048;SDS011;28673;44.412;11.918;2023-03-02T07:32:29;38.60;;;22.67;;
43048;SDS011;28673;44.412;11.918;2023-03-02T07:34:55;44.45;;;25.13;;
43048;SDS011;28673;44.412;11.918;2023-03-02T07:37:21;46.47;;;25.15;;
43048;SDS011;28673;44.412;11.918;2023-03-02T07:39:47;40.13;;;22.38;;
43048;SDS011;28673;44.412;11.918;2023-03-02T07:42:14;47.90;;;24.95;;
43048;SDS011;28673;44.412;11.918;2023-03-02T07:44:44;39.97;;;23.57;;
43048;SDS011;28673;44.412;11.918;2023-03-02T07:47:10;39.10;;;22.65;;
43048;SDS011;28673;44.412;11.918;2023-03-02T07:49:36;42.35;;;25.88;;
43048;SDS011;28673;44.412;11.918;2023-03-02T07:52:02;37.88;;;22.45;;
43048;SDS011;28673;44.412;11.918;2023-03-02T07:54:29;46.20;;;24.58;;
43048;SDS011;28673;44.412;11.918;2023-03-02T07:56:55;39.92;;;23.95;;
43048;SDS011;28673;44.412;11.918;2023-03-02T07:59:22;40.58;;;23.45;;
43048;SDS011;28673;44.412;11.918;2023-03-02T08:01:48;42.92;;;24.73;;
43048;SDS011;28673;44.412;11.918;2023-03-02T08:04:14;36.28;;;21.58;;
43048;SDS011;28673;44.412;11.918;2023-03-02T08:06:40;32.63;;;19.90;;
43048;SDS011;28673;44.412;11.918;2023-03-02T08:09:06;33.58;;;20.55;;
43048;SDS011;28673;44.412;11.918;2023-03-02T08:11:32;38.55;;;21.58;;
43048;SDS011;28673;44.412;11.918;2023-03-02T08:14:01;34.50;;;19.27;;
43048;SDS011;28673;44.412;11.918;2023-03-02T08:16:27;37.78;;;20.25;;
43048;SDS011;28673;44.412;11.918;2023-03-02T08:18:54;38.13;;;21.30;;
43048;SDS011;28673;44.412;11.918;2023-03-02T08:21:21;36.50;;;21.92;;
43048;SDS011;28673;44.412;11.918;2023-03-02T08:23:48;34.70;;;21.05;;
43048;SDS011;28673;44.412;11.918;2023-03-02T08:26:15;38.65;;;21.45;;
43048;SDS011;28673;44.412;11.918;2023-03-02T08:28:42;35.17;;;21.55;;
43048;SDS011;28673;44.412;11.918;2023-03-02T08:31:09;35.63;;;20.38;;
43048;SDS011;28673;44.412;11.918;2023-03-02T08:33:35;31.00;;;20.65;;
43048;SDS011;28673;44.412;11.918;2023-03-02T08:36:03;33.22;;;19.98;;
43048;SDS011;28673;44.412;11.918;2023-03-02T08:38:33;35.83;;;22.08;;
43048;SDS011;28673;44.412;11.918;2023-03-02T08:41:04;35.15;;;20.58;;
43048;SDS011;28673;44.412;11.918;2023-03-02T08:43:32;27.88;;;18.40;;
43048;SDS011;28673;44.412;11.918;2023-03-02T08:45:58;30.77;;;18.88;;
43048;SDS011;28673;44.412;11.918;2023-03-02T08:48:25;32.08;;;20.77;;
43048;SDS011;28673;44.412;11.918;2023-03-02T08:50:53;32.60;;;19.50;;
43048;SDS011;28673;44.412;11.918;2023-03-02T08:53:25;29.15;;;19.45;;
43048;SDS011;28673;44.412;11.918;2023-03-02T08:55:53;35.47;;;19.92;;
43048;SDS011;28673;44.412;11.918;2023-03-02T08:58:18;31.58;;;21.35;;
43048;SDS011;28673;44.412;11.918;2023-03-02T09:00:45;33.42;;;20.13;;
43048;SDS011;28673;44.412;11.918;2023-03-02T09:03:11;30.70;;;18.77;;
43048;SDS011;28673;44.412;11.918;2023-03-02T09:05:36;29.63;;;19.25;;
43048;SDS011;28673;44.412;11.918;2023-03-02T09:08:04;30.83;;;19.77;;
43048;SDS011;28673;44.412;11.918;2023-03-02T09:10:31;27.83;;;18.77;;
43048;SDS011;28673;44.412;11.918;2023-03-02T09:12:57;30.88;;;18.77;;
43048;SDS011;28673;44.412;11.918;2023-03-02T09:15:23;35.72;;;21.00;;
43048;SDS011;28673;44.412;11.918;2023-03-02T09:17:49;25.60;;;17.08;;
43048;SDS011;28673;44.412;11.918;2023-03-02T09:20:15;27.67;;;19.33;;
43048;SDS011;28673;44.412;11.918;2023-03-02T09:22:41;25.83;;;17.23;;
43048;SDS011;28673;44.412;11.918;2023-03-02T09:25:13;31.52;;;19.55;;
43048;SDS011;28673;44.412;11.918;2023-03-02T09:27:42;27.77;;;18.73;;
43048;SDS011;28673;44.412;11.918;2023-03-02T09:30:08;27.20;;;16.48;;
43048;SDS011;28673;44.412;11.918;2023-03-02T09:32:35;32.33;;;18.98;;
43048;SDS011;28673;44.412;11.918;2023-03-02T09:35:01;32.15;;;21.00;;
43048;SDS011;28673;44.412;11.918;2023-03-02T09:37:30;27.42;;;18.75;;
43048;SDS011;28673;44.412;11.918;2023-03-02T09:39:55;28.50;;;19.13;;
43048;SDS011;28673;44.412;11.918;2023-03-02T09:48:12;26.67;;;17.80;;
43048;SDS011;28673;44.412;11.918;2023-03-02T09:50:51;29.08;;;19.15;;
43048;SDS011;28673;44.412;11.918;2023-03-02T09:56:15;29.60;;;18.65;;
43048;SDS011;28673;44.412;11.918;2023-03-02T10:01:14;26.58;;;19.55;;
43048;SDS011;28673;44.412;11.918;2023-03-02T10:03:59;38.15;;;21.17;;
43048;SDS011;28673;44.412;11.918;2023-03-02T10:06:33;31.25;;;18.63;;
43048;SDS011;28673;44.412;11.918;2023-03-02T10:08:59;29.77;;;19.85;;
43048;SDS011;28673;44.412;11.918;2023-03-02T10:11:32;29.40;;;20.13;;
43048;SDS011;28673;44.412;11.918;2023-03-02T10:14:45;27.50;;;19.45;;
43048;SDS011;28673;44.412;11.918;2023-03-02T10:17:18;32.72;;;19.63;;
43048;SDS011;28673;44.412;11.918;2023-03-02T10:19:50;30.63;;;19.50;;
43048;SDS011;28673;44.412;11.918;2023-03-02T10:22:27;33.50;;;20.42;;
43048;SDS011;28673;44.412;11.918;2023-03-02T10:28:16;29.58;;;20.05;;
43048;SDS011;28673;44.412;11.918;2023-03-02T10:30:41;32.45;;;20.88;;
43048;SDS011;28673;44.412;11.918;2023-03-02T10:33:13;36.08;;;20.77;;
43048;SDS011;28673;44.412;11.918;2023-03-02T10:35:45;30.80;;;20.45;;
43048;SDS011;28673;44.412;11.918;2023-03-02T10:43:25;30.80;;;18.90;;
43048;SDS011;28673;44.412;11.918;2023-03-02T10:46:01;30.23;;;19.80;;
43048;SDS011;28673;44.412;11.918;2023-03-02T10:48:28;30.95;;;19.45;;
43048;SDS011;28673;44.412;11.918;2023-03-02T10:50:56;34.10;;;20.20;;
43048;SDS011;28673;44.412;11.918;2023-03-02T10:53:23;35.45;;;20.48;;
43048;SDS011;28673;44.412;11.918;2023-03-02T10:55:50;31.45;;;19.85;;
43048;SDS011;28673;44.412;11.918;2023-03-02T11:01:05;30.52;;;19.95;;
43048;SDS011;28673;44.412;11.918;2023-03-02T11:03:40;37.13;;;21.90;;
43048;SDS011;28673;44.412;11.918;2023-03-02T11:06:10;33.95;;;22.27;;
43048;SDS011;28673;44.412;11.918;2023-03-02T11:08:42;31.40;;;19.30;;
43048;SDS011;28673;44.412;11.918;2023-03-02T11:11:22;29.45;;;20.60;;
43048;SDS011;28673;44.412;11.918;2023-03-02T11:13:48;31.60;;;21.52;;
43048;SDS011;28673;44.412;11.918;2023-03-02T11:21:23;34.63;;;20.58;;
43048;SDS011;28673;44.412;11.918;2023-03-02T11:26:48;34.80;;;20.20;;
43048;SDS011;28673;44.412;11.918;2023-03-02T11:43:11;32.10;;;21.50;;
43048;SDS011;28673;44.412;11.918;2023-03-02T11:45:44;38.65;;;21.65;;
43048;SDS011;28673;44.412;11.918;2023-03-02T11:48:32;38.67;;;23.27;;
43048;SDS011;28673;44.412;11.918;2023-03-02T11:51:10;35.17;;;22.48;;
43048;SDS011;28673;44.412;11.918;2023-03-02T11:53:40;32.35;;;21.58;;
43048;SDS011;28673;44.412;11.918;2023-03-02T11:56:13;31.65;;;22.48;;
43048;SDS011;28673;44.412;11.918;2023-03-02T11:58:40;35.03;;;22.20;;
43048;SDS011;28673;44.412;11.918;2023-03-02T12:01:26;34.13;;;22.65;;
43048;SDS011;28673;44.412;11.918;2023-03-02T12:03:53;30.80;;;20.40;;
43048;SDS011;28673;44.412;11.918;2023-03-02T12:06:34;34.22;;;23.50;;
43048;SDS011;28673;44.412;11.918;2023-03-02T12:09:08;34.30;;;21.63;;
43048;SDS011;28673;44.412;11.918;2023-03-02T12:11:57;36.38;;;22.80;;
43048;SDS011;28673;44.412;11.918;2023-03-02T12:14:42;37.90;;;22.77;;
43048;SDS011;28673;44.412;11.918;2023-03-02T12:22:46;36.78;;;23.35;;
43048;SDS011;28673;44.412;11.918;2023-03-02T12:27:44;36.88;;;22.08;;
43048;SDS011;28673;44.412;11.918;2023-03-02T12:32:44;34.97;;;20.85;;
43048;SDS011;28673;44.412;11.918;2023-03-02T12:35:22;34.25;;;20.55;;
43048;SDS011;28673;44.412;11.918;2023-03-02T12:37:53;37.90;;;23.55;;
43048;SDS011;28673;44.412;11.918;2023-03-02T12:40:24;37.22;;;22.60;;
43048;SDS011;28673;44.412;11.918;2023-03-02T12:51:16;37.67;;;23.92;;
43048;SDS011;28673;44.412;11.918;2023-03-02T12:53:47;40.80;;;24.42;;
43048;SDS011;28673;44.412;11.918;2023-03-02T12:56:20;41.58;;;25.90;;
43048;SDS011;28673;44.412;11.918;2023-03-02T12:58:48;39.25;;;25.38;;
43048;SDS011;28673;44.412;11.918;2023-03-02T13:01:19;40.83;;;24.40;;
43048;SDS011;28673;44.412;11.918;2023-03-02T13:03:50;47.25;;;27.27;;
43048;SDS011;28673;44.412;11.918;2023-03-02T13:06:18;41.20;;;24.85;;
43048;SDS011;28673;44.412;11.918;2023-03-02T13:08:45;46.67;;;26.55;;
43048;SDS011;28673;44.412;11.918;2023-03-02T13:11:18;46.50;;;28.75;;
43048;SDS011;28673;44.412;11.918;2023-03-02T13:13:51;40.53;;;25.73;;
43048;SDS011;28673;44.412;11.918;2023-03-02T13:18:49;39.17;;;26.23;;
43048;SDS011;28673;44.412;11.918;2023-03-02T13:21:23;41.70;;;26.08;;
43048;SDS011;28673;44.412;11.918;2023-03-02T13:23:57;39.30;;;24.00;;
43048;SDS011;28673;44.412;11.918;2023-03-02T13:26:25;38.53;;;25.27;;
43048;SDS011;28673;44.412;11.918;2023-03-02T13:29:04;40.33;;;24.70;;
43048;SDS011;28673;44.412;11.918;2023-03-02T13:31:32;42.20;;;25.17;;
43048;SDS011;28673;44.412;11.918;2023-03-02T13:33:59;51.70;;;27.20;;
43048;SDS011;28673;44.412;11.918;2023-03-02T13:36:29;37.67;;;24.67;;
43048;SDS011;28673;44.412;11.918;2023-03-02T13:39:00;37.13;;;24.33;;
43048;SDS011;28673;44.412;11.918;2023-03-02T13:41:31;43.95;;;25.60;;
43048;SDS011;28673;44.412;11.918;2023-03-02T13:43:59;39.10;;;24.77;;
43048;SDS011;28673;44.412;11.918;2023-03-02T13:49:29;37.90;;;25.63;;
43048;SDS011;28673;44.412;11.918;2023-03-02T13:52:00;42.05;;;26.63;;
43048;SDS011;28673;44.412;11.918;2023-03-02T13:54:32;46.05;;;26.55;;
43048;SDS011;28673;44.412;11.918;2023-03-02T13:57:00;47.05;;;25.95;;
43048;SDS011;28673;44.412;11.918;2023-03-02T13:59:28;43.70;;;26.13;;
43048;SDS011;28673;44.412;11.918;2023-03-02T14:01:56;37.97;;;24.92;;
43048;SDS011;28673;44.412;11.918;2023-03-02T14:04:22;38.50;;;26.55;;
43048;SDS011;28673;44.412;11.918;2023-03-02T14:06:49;42.50;;;25.45;;
43048;SDS011;28673;44.412;11.918;2023-03-02T14:09:16;38.70;;;25.52;;
43048;SDS011;28673;44.412;11.918;2023-03-02T14:11:44;41.40;;;26.25;;
43048;SDS011;28673;44.412;11.918;2023-03-02T14:14:14;42.42;;;26.90;;
43048;SDS011;28673;44.412;11.918;2023-03-02T14:16:42;41.13;;;25.75;;
43048;SDS011;28673;44.412;11.918;2023-03-02T14:19:11;40.45;;;24.98;;
43048;SDS011;28673;44.412;11.918;2023-03-02T14:21:38;42.60;;;25.42;;
43048;SDS011;28673;44.412;11.918;2023-03-02T14:24:05;38.10;;;25.25;;
43048;SDS011;28673;44.412;11.918;2023-03-02T14:26:38;42.70;;;25.02;;
43048;SDS011;28673;44.412;11.918;2023-03-02T14:31:46;38.28;;;24.65;;
43048;SDS011;28673;44.412;11.918;2023-03-02T14:34:12;44.17;;;27.13;;
43048;SDS011;28673;44.412;11.918;2023-03-02T14:36:39;39.22;;;24.70;;
43048;SDS011;28673;44.412;11.918;2023-03-02T14:39:41;45.72;;;26.90;;
43048;SDS011;28673;44.412;11.918;2023-03-02T14:42:03;42.40;;;24.95;;
43048;SDS011;28673;44.412;11.918;2023-03-02T14:44:30;41.08;;;25.58;;
43048;SDS011;28673;44.412;11.918;2023-03-02T14:46:57;40.72;;;25.25;;
43048;SDS011;28673;44.412;11.918;2023-03-02T14:49:23;36.78;;;24.42;;
43048;SDS011;28673;44.412;11.918;2023-03-02T14:52:04;45.35;;;25.95;;
43048;SDS011;28673;44.412;11.918;2023-03-02T14:57:00;35.67;;;23.92;;
43048;SDS011;28673;44.412;11.918;2023-03-02T14:59:26;40.22;;;24.45;;
43048;SDS011;28673;44.412;11.918;2023-03-02T15:01:52;46.53;;;26.20;;
43048;SDS011;28673;44.412;11.918;2023-03-02T15:04:18;40.70;;;26.38;;
43048;SDS011;28673;44.412;11.918;2023-03-02T15:06:44;41.15;;;25.30;;
43048;SDS011;28673;44.412;11.918;2023-03-02T15:09:10;44.95;;;26.60;;
43048;SDS011;28673;44.412;11.918;2023-03-02T15:11:37;38.42;;;25.55;;
43048;SDS011;28673;44.412;11.918;2023-03-02T15:14:03;37.90;;;25.35;;
43048;SDS011;28673;44.412;11.918;2023-03-02T15:16:29;37.35;;;24.63;;
43048;SDS011;28673;44.412;11.918;2023-03-02T15:18:56;42.95;;;25.55;;
43048;SDS011;28673;44.412;11.918;2023-03-02T15:21:22;41.83;;;26.75;;
43048;SDS011;28673;44.412;11.918;2023-03-02T15:23:48;37.58;;;25.48;;
43048;SDS011;28673;44.412;11.918;2023-03-02T15:26:15;39.78;;;25.17;;
43048;SDS011;28673;44.412;11.918;2023-03-02T15:28:41;42.83;;;26.88;;
43048;SDS011;28673;44.412;11.918;2023-03-02T15:31:13;37.40;;;24.73;;
43048;SDS011;28673;44.412;11.918;2023-03-02T15:33:41;43.75;;;25.63;;
43048;SDS011;28673;44.412;11.918;2023-03-02T15:36:10;42.13;;;27.02;;
43048;SDS011;28673;44.412;11.918;2023-03-02T15:38:37;40.15;;;25.38;;
43048;SDS011;28673;44.412;11.918;2023-03-02T15:41:04;41.35;;;25.60;;
43048;SDS011;28673;44.412;11.918;2023-03-02T15:43:37;38.70;;;24.02;;
43048;SDS011;28673;44.412;11.918;2023-03-02T15:46:04;45.72;;;28.02;;
43048;SDS011;28673;44.412;11.918;2023-03-02T15:48:30;42.83;;;26.85;;
43048;SDS011;28673;44.412;11.918;2023-03-02T15:50:57;41.45;;;24.20;;